Time;durP1;ratioP1;P1;durP2;ratioP2;P2;SDS_P1;SDS_P2;PMS_P1;PMS_P2;Temp;Humidity;BMP_temperature;BMP_pressure;BME280_temperature;BME280_humidity;BME280_pressure;Samples;Min_cycle;Max_cycle;Signal;HPM_P1;HPM_P2
2022/09/10 00:00:37;;;;;;;9.38;7.80;;;15.60;99.90;;;;;;5089259;28;20036;-80
2022/09/10 00:03:03;;;;;;;8.27;7.47;;;15.60;99.90;;;;;;5102060;28;20040;-81
2022/09/10 00:05:29;;;;;;;9.02;8.13;;;15.70;99.90;;;;;;5109815;28;20381;-81
2022/09/10 00:07:55;;;;;;;13.63;9.32;;;15.60;99.90;;;;;;5111973;28;20405;-80
2022/09/10 00:10:21;;;;;;;12.18;9.38;;;15.60;99.90;;;;;;5112568;28;20038;-80
2022/09/10 00:12:47;;;;;;;9.07;7.97;;;15.60;99.90;;;;;;5109593;28;20524;-80
2022/09/10 00:15:13;;;;;;;9.75;8.27;;;15.60;99.90;;;;;;5110218;28;20078;-80
2022/09/10 00:17:39;;;;;;;11.18;9.02;;;15.60;99.90;;;;;;5111258;28;20450;-80
2022/09/10 00:20:05;;;;;;;9.80;8.80;;;15.60;99.90;;;;;;5111334;28;20060;-80
2022/09/10 00:22:32;;;;;;;10.18;9.07;;;15.60;99.90;;;;;;5107451;28;20638;-81
2022/09/10 00:24:58;;;;;;;11.88;9.25;;;15.70;99.90;;;;;;5112891;28;20059;-81
2022/09/10 00:27:24;;;;;;;10.65;8.40;;;15.70;99.90;;;;;;5093772;28;20519;-80
2022/09/10 00:29:51;;;;;;;11.43;8.93;;;15.70;99.90;;;;;;5112210;28;20497;-81
2022/09/10 00:32:17;;;;;;;11.85;9.05;;;15.70;99.90;;;;;;5108663;28;20120;-81
2022/09/10 00:34:43;;;;;;;10.57;8.93;;;15.70;99.90;;;;;;5105385;28;20245;-81
2022/09/10 00:37:08;;;;;;;12.20;8.80;;;15.70;99.90;;;;;;5105529;28;20035;-79
2022/09/10 00:39:34;;;;;;;11.48;8.95;;;15.70;99.90;;;;;;5109952;28;20036;-81
2022/09/10 00:41:59;;;;;;;11.20;9.32;;;15.70;99.90;;;;;;5091035;28;20031;-80
2022/09/10 00:44:56;;;;;;;12.70;9.35;;;15.70;99.90;;;;;;5108912;28;20035;-80
2022/09/10 00:47:26;;;;;;;11.18;8.63;;;15.70;99.90;;;;;;5081221;28;20100;-80
2022/09/10 00:50:01;;;;;;;10.50;8.93;;;15.70;99.90;;;;;;5112049;28;20417;-80
2022/09/10 00:52:28;;;;;;;10.70;9.00;;;15.70;99.90;;;;;;5109875;28;20063;-80
2022/09/10 00:54:54;;;;;;;11.50;9.20;;;15.70;99.90;;;;;;5107607;28;20405;-80
2022/09/10 00:57:22;;;;;;;13.18;9.27;;;15.70;99.90;;;;;;5103356;28;20036;-81
2022/09/10 01:00:00;;;;;;;13.38;9.75;;;15.70;99.90;;;;;;5111833;28;20035;-80
2022/09/10 01:02:27;;;;;;;12.00;9.27;;;15.70;99.90;;;;;;5104990;28;20382;-80
2022/09/10 01:04:55;;;;;;;14.50;9.48;;;15.70;99.90;;;;;;5106839;28;20035;-81
2022/09/10 01:07:22;;;;;;;12.15;9.48;;;15.70;99.90;;;;;;5106275;28;20088;-80
2022/09/10 01:09:48;;;;;;;11.02;9.13;;;15.70;99.90;;;;;;5109714;28;20076;-81
2022/09/10 01:12:32;;;;;;;12.57;9.70;;;15.70;99.90;;;;;;5111006;28;20074;-81
2022/09/10 01:15:23;;;;;;;11.15;9.50;;;15.80;99.90;;;;;;5101915;28;20053;-80
2022/09/10 01:18:05;;;;;;;14.07;10.18;;;15.80;99.90;;;;;;5102956;28;20091;-81
2022/09/10 01:20:51;;;;;;;12.85;9.82;;;15.80;99.90;;;;;;5095885;28;20040;-81
2022/09/10 01:23:40;;;;;;;11.10;9.43;;;15.70;99.90;;;;;;5090498;28;20040;-80
2022/09/10 01:26:27;;;;;;;12.48;9.68;;;15.80;99.90;;;;;;5102485;28;20054;-81
2022/09/10 01:29:10;;;;;;;12.23;10.00;;;15.70;99.90;;;;;;5106776;28;20047;-80
2022/09/10 01:32:05;;;;;;;11.40;10.20;;;15.70;99.90;;;;;;5108075;28;20036;-80
2022/09/10 01:34:33;;;;;;;12.25;9.63;;;15.70;99.90;;;;;;5111409;28;20158;-80
2022/09/10 01:37:06;;;;;;;13.65;10.93;;;15.80;99.90;;;;;;5109453;28;20051;-80
2022/09/10 01:39:33;;;;;;;12.40;10.75;;;15.80;99.90;;;;;;5105504;28;20047;-81
2022/09/10 01:41:59;;;;;;;15.52;13.38;;;15.80;99.90;;;;;;5103781;28;20043;-81
2022/09/10 01:44:46;;;;;;;15.43;12.32;;;15.80;99.90;;;;;;5107493;28;20042;-81
2022/09/10 01:47:17;;;;;;;19.67;13.38;;;15.70;99.90;;;;;;5104871;28;20039;-81
2022/09/10 01:49:53;;;;;;;16.55;13.95;;;15.80;99.90;;;;;;5108681;28;20117;-81
2022/09/10 01:52:41;;;;;;;15.02;13.43;;;15.70;99.90;;;;;;5110602;28;20410;-81
2022/09/10 01:55:23;;;;;;;16.20;13.15;;;15.80;99.90;;;;;;5104298;28;20047;-81
2022/09/10 01:57:56;;;;;;;19.23;15.23;;;15.80;99.90;;;;;;5095586;28;20477;-80
2022/09/10 02:00:23;;;;;;;17.65;14.30;;;15.70;99.90;;;;;;5110739;28;20126;-81
2022/09/10 02:03:15;;;;;;;17.23;13.88;;;15.70;99.90;;;;;;5105253;28;20484;-80
2022/09/10 02:05:43;;;;;;;20.52;15.35;;;15.70;99.90;;;;;;5105981;28;20062;-82
2022/09/10 02:08:15;;;;;;;20.02;15.68;;;15.70;99.90;;;;;;5097846;28;20035;-81
2022/09/10 02:10:53;;;;;;;20.95;15.70;;;15.70;99.90;;;;;;5106493;28;20529;-81
2022/09/10 02:13:19;;;;;;;23.63;16.05;;;15.70;99.90;;;;;;5106101;28;20036;-81
2022/09/10 02:15:47;;;;;;;23.55;16.23;;;15.70;99.90;;;;;;5102227;28;20035;-81
2022/09/10 02:18:12;;;;;;;22.35;17.00;;;15.70;99.90;;;;;;5086438;28;20042;-81
2022/09/10 02:20:38;;;;;;;20.55;15.63;;;15.70;99.90;;;;;;5103148;28;20118;-81
2022/09/10 02:23:05;;;;;;;21.48;16.95;;;15.70;99.90;;;;;;5104128;28;20047;-81
2022/09/10 02:25:33;;;;;;;21.45;18.08;;;15.70;99.90;;;;;;5108783;28;20078;-81
2022/09/10 02:27:59;;;;;;;24.52;17.63;;;15.70;99.90;;;;;;5110338;28;20459;-81
2022/09/10 02:30:25;;;;;;;19.70;15.93;;;15.70;99.90;;;;;;5101981;28;20056;-81
2022/09/10 02:32:51;;;;;;;20.60;16.42;;;15.70;99.90;;;;;;5091445;28;20043;-81
2022/09/10 02:35:16;;;;;;;24.73;18.77;;;15.70;99.90;;;;;;5104638;28;20054;-81
2022/09/10 02:37:42;;;;;;;23.42;18.13;;;15.70;99.90;;;;;;5101391;28;20084;-81
2022/09/10 02:40:08;;;;;;;22.27;18.60;;;15.60;99.90;;;;;;5109637;28;20032;-81
2022/09/10 02:42:34;;;;;;;26.40;19.17;;;15.60;99.90;;;;;;5108191;28;20040;-79
2022/09/10 02:44:59;;;;;;;25.17;17.58;;;15.60;99.90;;;;;;5100785;28;20032;-81
2022/09/10 02:47:25;;;;;;;23.73;17.95;;;15.60;99.90;;;;;;5086917;28;20036;-81
2022/09/10 02:49:51;;;;;;;23.15;18.70;;;15.60;99.90;;;;;;5101139;28;20036;-81
2022/09/10 02:52:16;;;;;;;22.55;18.42;;;15.60;99.90;;;;;;5104181;28;20078;-81
2022/09/10 02:54:42;;;;;;;27.88;19.40;;;15.60;99.90;;;;;;5103608;28;20172;-81
2022/09/10 02:57:08;;;;;;;23.73;19.30;;;15.60;99.90;;;;;;5102954;28;20036;-81
2022/09/10 02:59:33;;;;;;;23.05;18.33;;;15.60;99.90;;;;;;5104422;28;20047;-80
2022/09/10 03:01:59;;;;;;;27.02;20.92;;;15.50;99.90;;;;;;5104033;28;20028;-81
2022/09/10 03:04:24;;;;;;;27.05;20.65;;;15.50;99.90;;;;;;5108235;28;20405;-80
2022/09/10 03:06:53;;;;;;;24.48;19.40;;;15.60;99.90;;;;;;5105372;28;20051;-81
2022/09/10 03:09:19;;;;;;;27.50;21.25;;;15.50;99.90;;;;;;5106407;28;20077;-81
2022/09/10 03:11:45;;;;;;;30.88;21.95;;;15.50;99.90;;;;;;5104727;28;20035;-80
2022/09/10 03:14:15;;;;;;;28.85;21.05;;;15.50;99.90;;;;;;5111911;28;20096;-81
2022/09/10 03:16:40;;;;;;;27.80;21.25;;;15.50;99.90;;;;;;5113475;28;20111;-81
2022/09/10 03:19:06;;;;;;;28.02;20.88;;;15.60;99.90;;;;;;5112904;28;20070;-80
2022/09/10 03:21:33;;;;;;;26.50;20.63;;;15.50;99.90;;;;;;5105970;28;20553;-81
2022/09/10 03:23:58;;;;;;;27.38;21.20;;;15.60;99.90;;;;;;5105622;28;20634;-81
2022/09/10 03:26:24;;;;;;;32.33;21.95;;;15.60;99.90;;;;;;5109408;28;20034;-81
2022/09/10 03:28:50;;;;;;;30.05;21.27;;;15.60;99.90;;;;;;5108473;28;20039;-80
2022/09/10 03:31:16;;;;;;;27.70;21.48;;;15.60;99.90;;;;;;5090421;28;20040;-81
2022/09/10 03:33:42;;;;;;;28.33;20.70;;;15.60;99.90;;;;;;5111749;28;20051;-81
2022/09/10 03:36:08;;;;;;;24.75;20.65;;;15.60;99.90;;;;;;5109730;28;20459;-81
2022/09/10 03:38:34;;;;;;;27.75;19.92;;;15.60;99.90;;;;;;5113171;28;20062;-81
2022/09/10 03:41:03;;;;;;;26.63;19.98;;;15.60;99.90;;;;;;5111154;28;20104;-81
2022/09/10 03:43:29;;;;;;;27.67;21.30;;;15.60;99.90;;;;;;5111824;28;20040;-81
2022/09/10 03:45:55;;;;;;;26.77;20.75;;;15.60;99.90;;;;;;5114085;28;20041;-81
2022/09/10 03:48:21;;;;;;;27.80;21.42;;;15.60;99.90;;;;;;5108979;28;20637;-81
2022/09/10 03:50:48;;;;;;;27.13;21.27;;;15.60;99.90;;;;;;5110714;28;20039;-81
2022/09/10 03:53:14;;;;;;;26.48;20.42;;;15.60;99.90;;;;;;5107694;28;20050;-81
2022/09/10 03:55:48;;;;;;;29.20;21.10;;;15.60;99.90;;;;;;5108093;28;20032;-81
2022/09/10 03:58:15;;;;;;;27.65;20.48;;;15.60;99.90;;;;;;5102406;28;20616;-81
2022/09/10 04:00:41;;;;;;;24.33;18.77;;;15.50;99.90;;;;;;5111330;28;20047;-81
2022/09/10 04:03:07;;;;;;;25.67;19.30;;;15.50;99.90;;;;;;5112754;28;20031;-80
2022/09/10 04:05:33;;;;;;;27.20;20.73;;;15.50;99.90;;;;;;5111536;28;20039;-81
2022/09/10 04:08:00;;;;;;;28.05;20.88;;;15.50;99.90;;;;;;5088449;28;20423;-81
2022/09/10 04:10:29;;;;;;;29.10;21.23;;;15.50;99.90;;;;;;5103582;28;20038;-81
2022/09/10 04:12:55;;;;;;;25.20;20.23;;;15.50;99.90;;;;;;5109066;28;20413;-81
2022/09/10 04:15:22;;;;;;;30.02;21.20;;;15.50;99.90;;;;;;5107823;28;20031;-80
2022/09/10 04:17:50;;;;;;;28.13;19.50;;;15.50;99.90;;;;;;5104489;28;20052;-81
2022/09/10 04:20:18;;;;;;;25.08;19.52;;;15.50;99.90;;;;;;5102233;28;20040;-81
2022/09/10 04:22:45;;;;;;;24.92;18.90;;;15.60;99.90;;;;;;5087399;28;20371;-80
2022/09/10 04:25:11;;;;;;;26.33;19.67;;;15.60;99.90;;;;;;5111858;28;20036;-81
2022/09/10 04:27:37;;;;;;;28.50;21.75;;;15.50;99.90;;;;;;5090830;28;20085;-81
2022/09/10 04:30:03;;;;;;;31.02;21.67;;;15.60;99.90;;;;;;5102385;28;20036;-80
2022/09/10 04:32:29;;;;;;;27.25;21.02;;;15.60;99.90;;;;;;5110826;28;20091;-80
2022/09/10 04:34:54;;;;;;;28.48;20.38;;;15.60;99.90;;;;;;5108739;28;20051;-81
2022/09/10 04:37:20;;;;;;;29.35;22.02;;;15.60;99.90;;;;;;5104585;28;20036;-81
2022/09/10 04:39:46;;;;;;;33.78;20.77;;;15.60;99.90;;;;;;5108257;28;20039;-80
2022/09/10 04:42:17;;;;;;;29.58;20.48;;;15.60;99.90;;;;;;5109205;28;20036;-80
2022/09/10 04:44:43;;;;;;;27.73;22.02;;;15.50;99.90;;;;;;5110166;28;20031;-81
2022/09/10 04:47:08;;;;;;;30.30;21.35;;;15.50;99.90;;;;;;5107799;28;20269;-80
2022/09/10 04:49:34;;;;;;;27.98;20.50;;;15.50;99.90;;;;;;5106483;28;20109;-81
2022/09/10 04:52:00;;;;;;;29.77;20.98;;;15.50;99.90;;;;;;5108461;28;20039;-80
2022/09/10 04:54:25;;;;;;;28.50;19.83;;;15.50;99.90;;;;;;5109226;28;20043;-81
2022/09/10 04:56:51;;;;;;;29.35;20.85;;;15.50;99.90;;;;;;5107065;28;20047;-81
2022/09/10 04:59:16;;;;;;;25.42;20.00;;;15.40;99.90;;;;;;5105374;28;20035;-80
2022/09/10 05:01:42;;;;;;;24.00;19.38;;;15.40;99.90;;;;;;5094803;28;20043;-81
2022/09/10 05:04:07;;;;;;;27.10;20.00;;;15.40;99.90;;;;;;5102987;28;20126;-81
2022/09/10 05:06:33;;;;;;;24.50;19.95;;;15.40;99.90;;;;;;5066731;28;1179038;-81
2022/09/10 05:08:58;;;;;;;24.52;19.73;;;15.40;99.90;;;;;;5110139;28;20413;-81
2022/09/10 05:11:24;;;;;;;25.80;19.13;;;15.40;99.90;;;;;;5106147;28;20527;-81
2022/09/10 05:13:49;;;;;;;26.40;19.05;;;15.40;99.90;;;;;;5102291;28;20119;-80
2022/09/10 05:16:15;;;;;;;24.00;18.38;;;15.40;99.90;;;;;;5109075;28;20550;-80
2022/09/10 05:18:41;;;;;;;26.08;18.67;;;15.40;99.90;;;;;;5108238;28;20100;-81
2022/09/10 05:21:06;;;;;;;24.45;19.25;;;15.40;99.90;;;;;;5106899;28;20031;-80
2022/09/10 05:23:32;;;;;;;25.27;18.23;;;15.40;99.90;;;;;;5108012;28;20052;-80
2022/09/10 05:25:58;;;;;;;21.13;17.55;;;15.50;99.90;;;;;;5108083;28;20505;-81
2022/09/10 05:28:24;;;;;;;25.83;18.17;;;15.40;99.90;;;;;;5104923;28;20039;-81
2022/09/10 05:30:49;;;;;;;24.70;17.83;;;15.50;99.90;;;;;;5108575;28;20039;-81
2022/09/10 05:33:15;;;;;;;23.85;18.27;;;15.50;99.90;;;;;;5084684;28;20040;-81
2022/09/10 05:35:41;;;;;;;22.85;17.98;;;15.50;99.90;;;;;;5106557;28;20035;-81
2022/09/10 05:38:11;;;;;;;22.88;17.88;;;15.50;99.90;;;;;;5088987;28;20040;-80
2022/09/10 05:40:37;;;;;;;24.70;18.08;;;15.50;99.90;;;;;;5102556;28;20032;-81
2022/09/10 05:43:02;;;;;;;24.13;18.05;;;15.50;99.90;;;;;;5100990;28;20031;-81
2022/09/10 05:45:28;;;;;;;23.35;17.73;;;15.60;99.90;;;;;;5107787;28;20031;-81
2022/09/10 05:47:53;;;;;;;24.17;17.95;;;15.60;99.90;;;;;;5098124;28;20042;-80
2022/09/10 05:50:19;;;;;;;24.23;17.60;;;15.60;99.90;;;;;;5106826;28;20050;-81
2022/09/10 05:52:45;;;;;;;23.60;17.95;;;15.60;99.90;;;;;;5105657;28;20386;-80
2022/09/10 05:55:11;;;;;;;21.95;16.90;;;15.60;99.90;;;;;;5088425;28;20036;-81
2022/09/10 05:57:39;;;;;;;22.45;16.55;;;15.70;99.90;;;;;;5104313;28;20046;-81
2022/09/10 06:00:07;;;;;;;24.63;17.73;;;15.70;99.90;;;;;;5103326;28;20040;-81
2022/09/10 06:02:33;;;;;;;22.50;16.88;;;15.70;99.90;;;;;;5107185;28;20062;-81
2022/09/10 06:04:59;;;;;;;22.98;16.30;;;15.70;99.90;;;;;;5107709;28;20036;-80
2022/09/10 06:07:29;;;;;;;22.58;17.70;;;15.70;99.90;;;;;;5107832;28;20075;-80
2022/09/10 06:09:56;;;;;;;24.15;17.17;;;15.70;99.90;;;;;;5111809;28;20443;-81
2022/09/10 06:12:22;;;;;;;22.40;17.00;;;15.80;99.90;;;;;;5110093;28;20099;-81
2022/09/10 06:14:51;;;;;;;20.02;17.02;;;15.80;99.90;;;;;;5109113;28;20040;-80
2022/09/10 06:17:17;;;;;;;19.45;16.23;;;15.80;99.90;;;;;;5109320;28;20462;-80
2022/09/10 06:19:43;;;;;;;22.02;16.25;;;15.80;99.90;;;;;;5108143;28;20039;-80
2022/09/10 06:22:09;;;;;;;21.42;16.85;;;15.90;99.90;;;;;;5105521;28;20041;-80
2022/09/10 06:24:38;;;;;;;20.08;16.25;;;15.80;99.90;;;;;;5107374;28;20117;-80
2022/09/10 06:27:04;;;;;;;24.55;16.65;;;15.90;99.90;;;;;;5086605;28;20035;-80
2022/09/10 06:29:31;;;;;;;22.35;17.02;;;15.90;99.90;;;;;;5089184;28;20044;-80
2022/09/10 06:31:58;;;;;;;22.70;16.88;;;15.90;99.90;;;;;;5109526;28;20408;-80
2022/09/10 06:34:24;;;;;;;23.77;16.42;;;15.90;99.90;;;;;;5105883;28;20089;-81
2022/09/10 06:36:50;;;;;;;19.33;15.98;;;15.90;99.90;;;;;;5101586;28;20136;-80
2022/09/10 06:39:16;;;;;;;21.80;16.10;;;15.90;99.90;;;;;;5105270;28;20525;-80
2022/09/10 06:41:42;;;;;;;22.08;16.10;;;15.90;99.90;;;;;;5105300;28;20042;-80
2022/09/10 06:44:11;;;;;;;26.17;17.70;;;15.90;99.90;;;;;;5099979;28;20036;-80
2022/09/10 06:46:37;;;;;;;24.25;17.20;;;15.90;99.90;;;;;;5085800;28;20047;-80
2022/09/10 06:49:06;;;;;;;23.25;17.00;;;16.00;99.90;;;;;;5089943;28;20047;-80
2022/09/10 06:51:32;;;;;;;25.20;17.13;;;16.00;99.90;;;;;;5101117;28;20038;-81
2022/09/10 06:54:00;;;;;;;26.15;17.48;;;16.00;99.90;;;;;;5074431;28;20101;-80
2022/09/10 06:56:26;;;;;;;24.25;16.45;;;16.00;99.90;;;;;;5090540;28;20093;-80
2022/09/10 06:58:51;;;;;;;24.55;17.33;;;16.10;99.90;;;;;;5090796;28;20044;-80
2022/09/10 07:01:19;;;;;;;29.48;17.48;;;16.10;99.90;;;;;;5090830;28;20144;-80
2022/09/10 07:03:45;;;;;;;26.00;17.13;;;16.10;99.90;;;;;;5073886;28;20036;-80
2022/09/10 07:06:14;;;;;;;26.38;17.77;;;16.20;99.90;;;;;;5078766;28;20077;-80
2022/09/10 07:08:40;;;;;;;23.30;16.38;;;16.10;99.90;;;;;;5103663;28;20484;-80
2022/09/10 07:11:10;;;;;;;25.55;18.25;;;16.20;99.90;;;;;;5107928;28;20513;-80
2022/09/10 07:13:36;;;;;;;25.77;18.60;;;16.20;99.90;;;;;;5090087;28;20109;-80
2022/09/10 07:16:02;;;;;;;25.77;18.23;;;16.30;99.90;;;;;;5104321;28;20048;-81
2022/09/10 07:18:29;;;;;;;24.52;17.20;;;16.30;99.90;;;;;;5110019;28;20040;-81
2022/09/10 07:21:06;;;;;;;28.13;17.38;;;16.30;99.90;;;;;;5111243;28;20119;-80
2022/09/10 07:23:32;;;;;;;26.15;17.70;;;16.30;99.90;;;;;;5091728;28;20051;-81
2022/09/10 07:26:06;;;;;;;28.67;18.08;;;16.30;99.90;;;;;;5090552;28;20036;-80
2022/09/10 07:28:33;;;;;;;27.15;17.70;;;16.40;99.90;;;;;;5110216;28;20108;-81
2022/09/10 07:30:59;;;;;;;31.17;18.05;;;16.30;99.90;;;;;;5096372;28;20521;-80
2022/09/10 07:33:24;;;;;;;25.38;18.00;;;16.40;99.90;;;;;;5090461;28;20036;-80
2022/09/10 07:35:50;;;;;;;27.13;17.98;;;16.50;99.90;;;;;;5090448;28;20044;-80
2022/09/10 07:38:16;;;;;;;24.35;18.15;;;16.50;99.90;;;;;;5090771;28;20036;-80
2022/09/10 07:40:45;;;;;;;27.92;17.33;;;16.50;99.90;;;;;;5089028;28;20135;-80
2022/09/10 07:43:10;;;;;;;29.58;18.48;;;16.50;99.90;;;;;;5091195;28;20043;-80
2022/09/10 07:45:36;;;;;;;32.08;18.98;;;16.50;99.90;;;;;;5106023;28;20038;-79
2022/09/10 07:48:02;;;;;;;32.42;19.10;;;16.50;99.90;;;;;;5107611;28;20044;-79
2022/09/10 07:50:27;;;;;;;28.90;19.25;;;16.50;99.90;;;;;;5107847;28;20405;-79
2022/09/10 07:52:53;;;;;;;31.35;19.55;;;16.50;99.90;;;;;;5104128;28;20147;-80
2022/09/10 07:55:18;;;;;;;25.90;18.20;;;16.50;99.90;;;;;;5102441;28;20436;-80
2022/09/10 07:57:44;;;;;;;28.73;19.20;;;16.60;99.90;;;;;;5109837;28;20039;-80
2022/09/10 08:00:13;;;;;;;26.55;18.02;;;16.50;99.90;;;;;;5099073;28;20081;-80
2022/09/10 08:02:40;;;;;;;29.02;18.52;;;16.50;99.90;;;;;;5107834;28;20068;-79
2022/09/10 08:05:07;;;;;;;34.08;19.17;;;16.50;99.90;;;;;;5110499;28;20044;-80
2022/09/10 08:07:33;;;;;;;32.85;19.60;;;16.60;99.90;;;;;;5109791;28;20044;-80
2022/09/10 08:09:58;;;;;;;24.35;17.40;;;16.60;99.90;;;;;;5100009;28;20379;-81
2022/09/10 08:12:24;;;;;;;27.92;18.42;;;16.60;99.90;;;;;;5111898;28;20455;-80
2022/09/10 08:14:51;;;;;;;28.35;18.85;;;16.60;99.90;;;;;;5101407;28;20047;-81
2022/09/10 08:17:17;;;;;;;25.75;18.35;;;16.70;99.90;;;;;;5099293;28;20383;-80
2022/09/10 08:19:51;;;;;;;27.95;18.75;;;16.70;99.90;;;;;;5093710;28;20105;-81
2022/09/10 08:22:17;;;;;;;28.17;18.50;;;16.70;99.90;;;;;;5077278;28;20066;-80
2022/09/10 08:24:42;;;;;;;26.60;18.17;;;16.80;99.90;;;;;;5094603;28;20101;-81
2022/09/10 08:27:09;;;;;;;28.55;19.52;;;16.80;99.90;;;;;;5101153;28;20697;-80
2022/09/10 08:29:35;;;;;;;26.85;18.45;;;16.90;99.90;;;;;;5093474;28;20048;-80
2022/09/10 08:32:00;;;;;;;26.88;17.58;;;17.00;99.90;;;;;;5092431;28;20559;-80
2022/09/10 08:34:26;;;;;;;29.10;18.58;;;17.10;99.90;;;;;;5094111;28;20036;-81
2022/09/10 08:36:52;;;;;;;29.80;17.60;;;17.10;99.90;;;;;;5100947;28;20044;-81
2022/09/10 08:39:18;;;;;;;28.23;18.35;;;17.20;99.90;;;;;;5076899;28;20122;-80
2022/09/10 08:41:51;;;;;;;27.42;18.27;;;17.20;99.90;;;;;;5093703;28;20470;-80
2022/09/10 08:44:32;;;;;;;24.67;17.08;;;17.30;99.90;;;;;;5094688;28;20039;-80
2022/09/10 08:47:04;;;;;;;26.30;17.00;;;17.30;99.90;;;;;;5094666;28;20040;-82
2022/09/10 08:49:39;;;;;;;25.75;17.17;;;17.40;99.90;;;;;;5094516;28;20052;-80
2022/09/10 08:52:27;;;;;;;25.42;17.38;;;17.40;99.90;;;;;;5111085;28;20047;-80
2022/09/10 08:55:12;;;;;;;25.65;17.08;;;17.60;99.90;;;;;;5076383;28;20048;-81
2022/09/10 08:57:53;;;;;;;24.30;15.60;;;17.70;99.90;;;;;;5093364;28;20048;-80
2022/09/10 09:00:22;;;;;;;25.85;16.98;;;17.70;99.90;;;;;;5106308;28;20566;-80
2022/09/10 09:02:55;;;;;;;26.65;16.35;;;17.70;99.90;;;;;;5088259;28;20675;-80
2022/09/10 09:05:22;;;;;;;23.87;16.10;;;17.80;99.90;;;;;;5096526;28;20031;-80
2022/09/10 09:07:49;;;;;;;23.17;15.95;;;17.80;99.90;;;;;;5092322;28;20067;-80
2022/09/10 09:10:24;;;;;;;22.25;15.35;;;17.80;99.90;;;;;;5109236;28;20036;-79
2022/09/10 09:13:14;;;;;;;21.48;15.68;;;17.80;99.90;;;;;;5104967;28;20405;-80
2022/09/10 09:15:46;;;;;;;25.58;14.82;;;17.80;99.90;;;;;;5104894;28;20075;-80
2022/09/10 09:18:19;;;;;;;20.45;15.10;;;17.80;99.90;;;;;;5099265;28;20043;-80
2022/09/10 09:20:56;;;;;;;20.35;14.43;;;17.80;99.90;;;;;;5096575;28;20027;-80
2022/09/10 09:23:50;;;;;;;18.63;13.25;;;17.80;99.90;;;;;;5101387;28;20046;-80
2022/09/10 09:26:18;;;;;;;19.23;13.53;;;17.80;99.90;;;;;;5097579;28;20039;-80
2022/09/10 09:29:00;;;;;;;19.40;14.43;;;17.80;99.90;;;;;;5101627;28;20531;-79
2022/09/10 09:31:31;;;;;;;20.73;13.77;;;17.90;99.90;;;;;;5093793;28;20067;-80
2022/09/10 09:34:06;;;;;;;19.58;13.77;;;17.90;99.90;;;;;;5110494;28;20074;-79
2022/09/10 09:36:37;;;;;;;21.38;13.98;;;17.90;99.90;;;;;;5103783;28;20035;-80
2022/09/10 09:39:15;;;;;;;17.30;12.40;;;18.00;99.90;;;;;;5099840;28;20060;-80
2022/09/10 09:42:09;;;;;;;16.75;13.35;;;18.00;99.90;;;;;;5086915;28;20046;-80
2022/09/10 09:44:42;;;;;;;;;;;18.00;99.90;;;;;;5109797;28;20122;-80
2022/09/10 09:47:08;;;;;;;20.33;12.55;;;18.00;99.90;;;;;;5099392;28;19938;-79
2022/09/10 09:49:34;;;;;;;18.52;12.80;;;18.10;99.90;;;;;;5105430;28;20040;-78
2022/09/10 09:52:11;;;;;;;18.65;13.75;;;18.10;99.90;;;;;;5107964;28;20062;-79
2022/09/10 09:54:42;;;;;;;18.80;14.40;;;18.20;99.90;;;;;;5109454;28;20556;-80
2022/09/10 09:57:15;;;;;;;19.85;14.35;;;18.20;99.90;;;;;;5106618;28;20165;-79
2022/09/10 09:59:40;;;;;;;18.73;14.30;;;18.20;99.90;;;;;;5100418;28;20027;-81
2022/09/10 10:02:20;;;;;;;20.38;14.40;;;18.20;99.90;;;;;;5109880;28;20389;-81
2022/09/10 10:05:15;;;;;;;20.85;13.90;;;18.30;99.90;;;;;;5104692;28;20079;-79
2022/09/10 10:07:41;;;;;;;18.67;13.80;;;18.30;99.90;;;;;;5087357;28;20047;-80
2022/09/10 10:10:21;;;;;;;17.02;13.38;;;18.30;99.90;;;;;;5111666;28;20043;-80
2022/09/10 10:12:50;;;;;;;15.60;12.75;;;18.30;99.90;;;;;;5104321;28;20035;-81
2022/09/10 10:15:43;;;;;;;16.90;12.85;;;18.30;99.90;;;;;;5095924;28;20566;-81
2022/09/10 10:18:21;;;;;;;17.05;12.32;;;18.30;99.90;;;;;;5107675;28;20040;-80
2022/09/10 10:20:48;;;;;;;18.00;12.57;;;18.30;99.90;;;;;;5099315;28;20089;-80
2022/09/10 10:23:35;;;;;;;16.95;12.23;;;18.30;99.90;;;;;;5101320;28;20028;-81
2022/09/10 10:26:20;;;;;;;15.75;12.38;;;18.40;99.90;;;;;;5108791;28;20028;-81
2022/09/10 10:28:49;;;;;;;20.92;13.60;;;18.40;99.90;;;;;;5106672;28;20048;-81
2022/09/10 10:31:16;;;;;;;16.35;12.25;;;18.50;99.90;;;;;;5103622;28;20032;-81
2022/09/10 10:34:08;;;;;;;18.13;12.52;;;18.50;99.90;;;;;;5106845;28;20118;-81
2022/09/10 10:37:08;;;;;;;18.33;13.68;;;18.60;99.90;;;;;;5081803;28;20058;-80
2022/09/10 10:39:52;;;;;;;16.88;11.85;;;18.60;99.90;;;;;;5096315;28;20084;-81
2022/09/10 10:42:35;;;;;;;20.48;13.60;;;18.60;99.90;;;;;;5100148;28;20422;-81
2022/09/10 10:45:10;;;;;;;19.80;12.40;;;18.70;99.90;;;;;;5099065;28;20036;-81
2022/09/10 10:48:10;;;;;;;19.20;12.27;;;18.80;99.90;;;;;;5105884;28;20047;-81
2022/09/10 10:51:17;;;;;;;17.05;12.30;;;18.80;99.90;;;;;;5078278;28;20528;-80
2022/09/10 10:54:01;;;;;;;14.40;10.88;;;18.90;99.90;;;;;;5102531;28;20043;-80
2022/09/10 10:56:55;;;;;;;18.45;12.30;;;19.00;99.90;;;;;;5107836;28;20412;-80
2022/09/10 10:59:41;;;;;;;18.15;12.68;;;19.10;99.90;;;;;;5096732;28;20114;-81
2022/09/10 11:02:26;;;;;;;15.23;11.52;;;19.20;99.90;;;;;;5095495;28;20444;-81
2022/09/10 11:04:54;;;;;;;17.58;11.75;;;19.20;99.90;;;;;;5097578;28;20046;-80
2022/09/10 11:07:26;;;;;;;14.20;10.60;;;19.30;99.90;;;;;;5101164;28;20039;-80
2022/09/10 11:09:57;;;;;;;13.30;11.02;;;19.30;99.90;;;;;;5098812;28;20131;-80
2022/09/10 11:12:42;;;;;;;16.00;10.63;;;19.40;99.90;;;;;;5104047;28;20047;-81
2022/09/10 11:15:16;;;;;;;16.20;11.00;;;19.50;99.90;;;;;;5101971;28;20040;-80
2022/09/10 11:17:50;;;;;;;13.55;10.27;;;19.50;99.90;;;;;;5103644;28;20460;-80
2022/09/10 11:20:45;;;;;;;12.77;10.43;;;19.60;99.90;;;;;;5106833;28;20386;-80
2022/09/10 11:23:26;;;;;;;15.48;10.68;;;19.60;99.90;;;;;;5082443;28;20052;-81
2022/09/10 11:26:23;;;;;;;17.30;11.65;;;19.60;99.90;;;;;;5101844;28;20043;-81
2022/09/10 11:29:18;;;;;;;12.68;10.80;;;19.70;99.90;;;;;;5096517;28;20497;-80
2022/09/10 11:32:06;;;;;;;14.82;10.27;;;19.80;99.90;;;;;;5084015;28;20048;-81
2022/09/10 11:35:04;;;;;;;17.02;11.20;;;19.90;99.90;;;;;;5095507;28;20479;-80
2022/09/10 11:38:00;;;;;;;14.10;10.65;;;20.00;99.90;;;;;;5109410;28;20043;-81
2022/09/10 11:40:41;;;;;;;14.32;10.93;;;20.10;99.90;;;;;;5102692;28;20077;-81
2022/09/10 11:43:12;;;;;;;13.18;10.35;;;20.30;99.90;;;;;;5091858;28;20039;-80
2022/09/10 11:45:45;;;;;;;13.40;10.93;;;20.40;99.90;;;;;;5105182;28;20044;-80
2022/09/10 11:48:32;;;;;;;14.35;10.35;;;20.40;99.90;;;;;;5114593;28;20443;-81
2022/09/10 11:51:10;;;;;;;14.32;10.32;;;20.30;99.90;;;;;;5106385;28;20137;-80
2022/09/10 11:53:36;;;;;;;13.52;10.27;;;20.40;99.90;;;;;;5113876;28;20039;-80
2022/09/10 11:56:29;;;;;;;14.23;9.70;;;20.40;99.90;;;;;;5094420;28;20089;-80
2022/09/10 11:59:13;;;;;;;14.93;10.32;;;20.50;99.90;;;;;;5093425;28;20493;-81
2022/09/10 12:01:48;;;;;;;;;;;20.50;99.90;;;;;;5094169;28;20094;-80
2022/09/10 12:04:44;;;;;;;12.70;9.75;;;20.50;99.90;;;;;;5094407;28;19923;-80
2022/09/10 12:07:25;;;;;;;12.05;9.15;;;20.50;99.90;;;;;;5094310;28;20039;-81
2022/09/10 12:10:05;;;;;;;12.13;9.50;;;20.50;99.90;;;;;;5094480;28;20086;-81
2022/09/10 12:12:37;;;;;;;12.18;10.30;;;20.40;99.90;;;;;;5095348;28;20040;-82
2022/09/10 12:15:21;;;;;;;12.18;9.57;;;20.30;99.90;;;;;;5094214;28;20051;-80
2022/09/10 12:17:55;;;;;;;12.20;9.23;;;20.30;99.90;;;;;;5094619;28;20040;-81
2022/09/10 12:20:28;;;;;;;11.82;8.48;;;20.40;99.90;;;;;;5094228;28;20058;-79
2022/09/10 12:22:55;;;;;;;12.25;9.70;;;20.40;99.90;;;;;;5093496;28;20040;-80
2022/09/10 12:25:20;;;;;;;11.65;9.43;;;20.60;99.90;;;;;;5094431;28;20518;-80
2022/09/10 12:27:58;;;;;;;11.27;9.13;;;20.90;99.90;;;;;;5094267;28;20047;-80
2022/09/10 12:30:23;;;;;;;11.93;9.55;;;21.30;99.90;;;;;;5094208;28;20367;-81
2022/09/10 12:32:51;;;;;;;10.88;8.75;;;21.70;99.90;;;;;;5076925;28;20036;-80
2022/09/10 12:35:42;;;;;;;9.00;7.40;;;22.20;99.90;;;;;;5094130;28;20054;-80
2022/09/10 12:38:47;;;;;;;8.88;6.68;;;22.70;99.90;;;;;;5077358;28;20086;-79
2022/09/10 12:41:34;;;;;;;11.10;8.00;;;22.80;99.90;;;;;;5094122;28;20092;-80
2022/09/10 12:44:03;;;;;;;8.40;6.90;;;22.70;99.90;;;;;;5094145;28;20075;-81
2022/09/10 12:46:30;;;;;;;8.38;5.53;;;22.50;99.90;;;;;;5094125;28;20532;-81
2022/09/10 12:48:56;;;;;;;7.80;5.60;;;22.30;99.90;;;;;;5092966;28;20075;-81
2022/09/10 12:51:42;;;;;;;8.73;5.90;;;22.20;99.90;;;;;;5093047;28;20054;-80